Time;durP1;ratioP1;P1;durP2;ratioP2;P2;SDS_P1;SDS_P2;PMS_P1;PMS_P2;Temp;Humidity;BMP_temperature;BMP_pressure;BME280_temperature;BME280_humidity;BME280_pressure;Samples;Min_cycle;Max_cycle;Signal;HPM_P1;HPM_P2
2022/05/20 00:01:02;;;;;;;2.90;2.00;;;;;;;9.94;53.74;99346.51;105022;1271;74968;-25
2022/05/20 00:03:31;;;;;;;2.40;1.20;;;;;;;9.89;53.80;99338.49;104987;1271;74457;-25
2022/05/20 00:06:00;;;;;;;8.40;1.30;;;;;;;9.89;53.83;99337.33;105394;1271;61874;-25
2022/05/20 00:08:29;;;;;;;3.80;1.20;;;;;;;9.87;53.97;99334.21;105114;1271;63884;-25
2022/05/20 00:10:59;;;;;;;1.90;1.10;;;;;;;9.87;53.77;99328.48;105380;1270;75369;-26
2022/05/20 00:13:30;;;;;;;1.90;1.20;;;;;;;9.85;54.00;99328.23;105178;1271;76082;-25
2022/05/20 00:15:59;;;;;;;2.50;1.50;;;;;;;9.85;54.02;99331.73;105123;1271;74127;-25
2022/05/20 00:18:28;;;;;;;4.10;1.30;;;;;;;9.82;54.03;99328.61;105049;1270;61143;-25
2022/05/20 00:20:59;;;;;;;2.10;1.40;;;;;;;9.81;53.89;99331.63;104998;1271;62340;-25
2022/05/20 00:23:28;;;;;;;4.70;1.20;;;;;;;9.81;53.85;99334.11;105384;1271;75383;-25
2022/05/20 00:25:56;;;;;;;3.90;1.30;;;;;;;9.76;54.09;99336.73;105276;1270;74968;-25
2022/05/20 00:28:27;;;;;;;3.60;1.40;;;;;;;9.75;53.83;99339.75;105139;1271;74397;-25
2022/05/20 00:31:08;;;;;;;2.20;1.40;;;;;;;9.76;53.70;99340.03;105113;1271;61795;-25
2022/05/20 00:33:38;;;;;;;3.50;1.40;;;;;;;9.76;53.55;99338.77;104819;1271;61025;-25
2022/05/20 00:36:06;;;;;;;3.90;1.20;;;;;;;9.76;53.29;99333.79;104973;1270;75498;-25
2022/05/20 00:38:37;;;;;;;3.60;1.20;;;;;;;9.77;53.21;99331.81;105213;1271;76259;-25
2022/05/20 00:41:07;;;;;;;2.20;1.30;;;;;;;9.75;53.25;99331.22;105240;1271;74511;-25
2022/05/20 00:43:39;;;;;;;1.60;1.00;;;;;;;9.73;53.27;99332.40;104990;1271;61153;-25
2022/05/20 00:46:16;;;;;;;2.10;1.20;;;;;;;9.72;53.15;99333.41;104836;1271;61220;-25
2022/05/20 00:48:45;;;;;;;1.70;1.00;;;;;;;9.71;53.32;99334.88;104973;1270;75512;-25
2022/05/20 00:51:21;;;;;;;5.50;1.10;;;;;;;9.69;53.38;99336.41;105008;1271;76063;-25
2022/05/20 00:54:18;;;;;;;6.90;1.40;;;;;;;9.63;53.67;99335.55;104787;1272;73423;-25
2022/05/20 00:56:48;;;;;;;1.70;1.10;;;;;;;9.57;53.73;99328.22;104842;1271;62309;-25
2022/05/20 00:59:20;;;;;;;6.00;1.20;;;;;;;9.52;53.66;99328.89;105134;1271;60994;-25
2022/05/20 01:01:49;;;;;;;3.90;1.10;;;;;;;9.49;53.93;99326.55;105098;1271;75568;-25
2022/05/20 01:04:18;;;;;;;5.40;2.10;;;;;;;9.45;54.37;99324.77;105213;1271;76171;-25
2022/05/20 01:06:48;;;;;;;2.40;1.00;;;;;;;9.39;54.35;99323.98;105143;1271;72390;-25
2022/05/20 01:09:17;;;;;;;3.60;1.10;;;;;;;9.33;54.43;99320.05;105113;1271;60954;-25
2022/05/20 01:11:46;;;;;;;2.90;1.20;;;;;;;9.30;54.43;99321.80;105109;1271;61954;-25
2022/05/20 01:14:23;;;;;;;2.00;1.00;;;;;;;9.26;54.68;99320.00;104995;1271;75328;-25
2022/05/20 01:16:52;;;;;;;2.00;1.40;;;;;;;9.20;54.87;99325.29;104837;1271;74993;-25
2022/05/20 01:19:33;;;;;;;6.10;1.20;;;;;;;9.18;54.42;99323.35;104832;1271;73356;-25
2022/05/20 01:22:04;;;;;;;3.40;1.40;;;;;;;9.19;54.24;99325.04;105135;1272;61179;-25
2022/05/20 01:24:33;;;;;;;3.80;1.20;;;;;;;9.19;54.58;99326.25;105120;1271;61996;-25
2022/05/20 01:27:02;;;;;;;4.50;1.40;;;;;;;9.13;54.68;99328.02;105030;1271;75559;-25
2022/05/20 01:29:31;;;;;;;2.50;1.40;;;;;;;9.10;54.57;99328.27;105061;1271;74959;-25
2022/05/20 01:32:00;;;;;;;3.40;1.30;;;;;;;9.05;54.91;99328.08;104970;1271;74140;-26
2022/05/20 01:34:29;;;;;;;2.40;1.30;;;;;;;8.98;55.14;99327.91;105272;1271;62348;-25
2022/05/20 01:36:58;;;;;;;2.50;1.10;;;;;;;8.92;55.38;99325.00;105130;1271;61125;-25
2022/05/20 01:39:26;;;;;;;1.90;1.10;;;;;;;8.87;55.40;99331.76;105285;1271;75294;-25
2022/05/20 01:42:05;;;;;;;2.40;1.50;;;;;;;8.82;55.61;99331.56;104994;1271;76140;-25
2022/05/20 01:44:38;;;;;;;4.10;1.10;;;;;;;8.77;55.75;99330.19;105164;1271;74368;-25
2022/05/20 01:47:21;;;;;;;3.10;1.20;;;;;;;8.73;55.79;99331.02;105057;1271;61258;-25
2022/05/20 01:49:54;;;;;;;1.50;1.10;;;;;;;8.69;56.05;99332.33;105247;1270;61089;-25
2022/05/20 01:52:37;;;;;;;3.40;1.20;;;;;;;8.63;56.09;99331.98;104980;1271;75562;-25
2022/05/20 01:55:21;;;;;;;5.90;1.60;;;;;;;8.57;56.28;99328.30;104826;1271;75172;-25
2022/05/20 01:57:54;;;;;;;2.10;1.40;;;;;;;8.53;56.49;99327.38;104965;1271;74285;-25
2022/05/20 02:00:25;;;;;;;2.70;1.40;;;;;;;8.47;56.51;99326.66;104797;1271;62204;-25
2022/05/20 02:02:54;;;;;;;2.30;1.20;;;;;;;8.44;56.63;99327.94;104953;1271;61233;-25
2022/05/20 02:05:52;;;;;;;1.90;1.20;;;;;;;8.40;56.74;99329.59;105384;1271;75084;-26
2022/05/20 02:08:24;;;;;;;3.10;1.30;;;;;;;8.34;56.78;99327.58;104991;1271;75952;-25
2022/05/20 02:11:09;;;;;;;5.10;1.40;;;;;;;8.31;56.84;99324.64;105001;1271;74387;-25
2022/05/20 02:13:46;;;;;;;4.20;1.40;;;;;;;8.29;56.92;99324.60;105079;1269;61226;-25
2022/05/20 02:16:18;;;;;;;4.30;1.20;;;;;;;8.26;56.89;99319.92;105079;1271;62727;-25
2022/05/20 02:18:51;;;;;;;2.50;1.30;;;;;;;8.22;57.10;99318.16;105119;1271;75539;-25
2022/05/20 02:21:22;;;;;;;2.20;1.40;;;;;;;8.16;57.03;99313.17;104924;1271;75982;-25
2022/05/20 02:23:54;;;;;;;1.60;1.00;;;;;;;8.12;57.28;99315.91;104957;1270;72811;-25
2022/05/20 02:26:24;;;;;;;3.90;1.30;;;;;;;8.08;57.51;99311.82;104801;1271;61140;-25
2022/05/20 02:29:02;;;;;;;3.40;1.60;;;;;;;8.05;57.67;99315.10;104932;1271;61888;-25
2022/05/20 02:31:35;;;;;;;6.20;1.10;;;;;;;8.02;57.68;99318.39;104884;1271;73592;-25
2022/05/20 02:34:04;;;;;;;4.20;1.20;;;;;;;8.00;57.55;99318.70;104802;1271;75959;-25
2022/05/20 02:36:35;;;;;;;2.40;1.20;;;;;;;8.00;57.55;99316.85;104928;1271;74382;-25
2022/05/20 02:39:06;;;;;;;2.70;1.30;;;;;;;8.00;57.58;99315.27;105110;1271;61141;-25
2022/05/20 02:41:35;;;;;;;3.60;1.40;;;;;;;7.99;57.86;99309.27;105176;1271;61150;-25
2022/05/20 02:44:04;;;;;;;2.10;1.30;;;;;;;7.98;57.76;99308.00;105253;1271;75522;-25
2022/05/20 02:46:33;;;;;;;2.00;1.20;;;;;;;7.98;57.49;99306.40;104946;1271;76026;-25
2022/05/20 02:49:02;;;;;;;10.70;1.20;;;;;;;7.99;57.53;99308.91;104995;1271;73421;-25
2022/05/20 02:51:31;;;;;;;2.90;1.20;;;;;;;8.02;57.59;99306.86;104915;1271;61117;-25
2022/05/20 02:54:02;;;;;;;2.80;1.30;;;;;;;8.06;57.65;99305.53;104949;1271;61802;-25
2022/05/20 02:56:32;;;;;;;2.20;1.30;;;;;;;8.09;57.59;99303.75;104996;1270;74309;-25
2022/05/20 03:04:40;;;;;;;3.10;1.10;;;;;;;8.24;57.69;99316.14;105179;1271;61246;-25
2022/05/20 03:07:09;;;;;;;1.70;1.20;;;;;;;8.27;57.56;99322.84;105073;1271;62112;-25
2022/05/20 03:09:38;;;;;;;2.40;1.10;;;;;;;8.30;57.05;99316.04;104911;1271;75371;-25
2022/05/20 03:12:08;;;;;;;4.50;1.30;;;;;;;8.37;56.77;99316.80;105151;1271;76341;-25
2022/05/20 03:14:38;;;;;;;3.40;1.30;;;;;;;8.41;56.74;99314.41;104977;1271;73255;-25
2022/05/20 03:17:07;;;;;;;4.70;1.30;;;;;;;8.45;56.70;99311.59;104949;1271;61307;-25
2022/05/20 03:19:37;;;;;;;6.00;1.60;;;;;;;8.49;56.56;99308.07;105369;1271;61161;-25
2022/05/20 03:22:07;;;;;;;2.00;1.00;;;;;;;8.57;56.80;99307.36;104941;1271;75396;-25
2022/05/20 03:24:37;;;;;;;1.80;1.00;;;;;;;8.65;56.41;99307.14;104949;1272;73871;-25
2022/05/20 03:27:06;;;;;;;2.20;1.10;;;;;;;8.76;55.92;99312.96;105247;1271;73355;-25
2022/05/20 03:29:35;;;;;;;3.60;1.10;;;;;;;8.88;55.71;99313.48;105145;1271;62132;-26
2022/05/20 03:32:07;;;;;;;3.10;1.40;;;;;;;9.03;55.37;99318.85;105103;1271;60955;-25
2022/05/20 03:34:36;;;;;;;2.40;1.30;;;;;;;9.19;55.51;99321.23;105068;1271;75563;-26
2022/05/20 03:37:05;;;;;;;3.00;1.50;;;;;;;9.39;55.54;99318.94;105282;1271;76041;-26
2022/05/20 03:39:35;;;;;;;4.90;1.50;;;;;;;9.62;55.13;99316.73;105308;1270;72529;-25
2022/05/20 03:42:04;;;;;;;2.60;1.40;;;;;;;9.86;54.66;99318.10;105361;1271;61731;-26
2022/05/20 03:44:34;;;;;;;4.60;1.50;;;;;;;10.06;54.24;99319.60;105243;1271;61179;-25
2022/05/20 03:47:03;;;;;;;2.40;1.20;;;;;;;10.25;53.88;99318.38;105068;1269;74639;-25
2022/05/20 03:49:32;;;;;;;5.20;1.20;;;;;;;10.48;53.40;99315.94;105131;1270;76001;-26
2022/05/20 03:52:01;;;;;;;2.50;1.60;;;;;;;10.75;53.28;99308.84;105140;1271;74224;-26
2022/05/20 03:54:34;;;;;;;1.90;1.10;;;;;;;11.02;52.75;99301.86;105247;1271;61803;-26
2022/05/20 03:57:03;;;;;;;2.30;1.30;;;;;;;11.34;53.06;99297.29;105018;1271;62123;-26
2022/05/20 03:59:39;;;;;;;1.40;1.20;;;;;;;11.65;51.60;99291.14;105164;1272;75555;-25
2022/05/20 04:02:11;;;;;;;3.40;1.40;;;;;;;11.91;51.21;99287.27;105052;1271;76000;-26
2022/05/20 04:04:45;;;;;;;2.60;1.60;;;;;;;12.19;50.58;99289.98;104975;1271;74230;-26
2022/05/20 04:07:16;;;;;;;2.70;1.30;;;;;;;12.42;49.86;99290.19;104909;1271;61121;-26
2022/05/20 04:09:56;;;;;;;2.40;1.40;;;;;;;12.79;48.93;99295.20;104910;1271;61048;-26
2022/05/20 04:12:28;;;;;;;3.60;1.60;;;;;;;13.19;48.04;99295.34;105102;1271;75583;-26
2022/05/20 04:14:57;;;;;;;4.40;1.50;;;;;;;13.56;47.15;99290.27;104856;1272;76108;-26
2022/05/20 04:17:26;;;;;;;4.90;1.50;;;;;;;13.77;46.59;99300.55;104976;1271;74207;-26
2022/05/20 04:19:55;;;;;;;4.60;1.20;;;;;;;13.93;46.79;99303.28;105024;1269;61137;-26
2022/05/20 04:22:29;;;;;;;4.70;2.80;;;;;;;13.95;46.02;99311.38;105075;1270;61093;-26
2022/05/20 04:24:57;;;;;;;1.90;1.30;;;;;;;13.84;45.55;99314.73;104851;1271;74531;-26
2022/05/20 04:27:27;;;;;;;1.50;1.10;;;;;;;13.78;45.96;99313.69;105005;1269;75997;-26
2022/05/20 04:29:57;;;;;;;2.60;1.40;;;;;;;13.80;46.18;99308.34;105336;1271;73383;-26
2022/05/20 04:32:26;;;;;;;2.80;1.30;;;;;;;13.88;46.05;99308.44;104991;1271;61154;-26
2022/05/20 04:34:55;;;;;;;2.70;1.20;;;;;;;14.02;45.96;99311.42;105262;1271;61149;-26
2022/05/20 04:37:27;;;;;;;1.70;1.20;;;;;;;14.19;46.77;99308.06;105387;1271;75351;-27
2022/05/20 04:39:57;;;;;;;3.90;1.60;;;;;;;14.33;46.00;99310.78;105052;1272;75876;-26
2022/05/20 04:48:01;;;;;;;2.20;1.10;;;;;;;14.86;44.63;99311.88;105325;1271;62051;-26
2022/05/20 04:50:30;;;;;;;1.90;1.10;;;;;;;14.99;44.50;99304.89;105013;1271;75464;-26
2022/05/20 04:53:06;;;;;;;2.00;1.20;;;;;;;15.13;44.48;99305.46;105021;1271;75871;-26
2022/05/20 04:55:35;;;;;;;6.00;1.30;;;;;;;15.36;44.66;99307.07;104848;1271;74410;-26
2022/05/20 04:58:04;;;;;;;19.20;1.60;;;;;;;15.63;43.80;99305.38;104929;1271;63078;-26
2022/05/20 05:00:36;;;;;;;4.50;1.40;;;;;;;15.87;43.76;99304.57;105151;1270;63867;-26
2022/05/20 05:03:04;;;;;;;2.20;1.20;;;;;;;16.19;44.42;99305.11;104955;1271;74460;-26
2022/05/20 05:05:34;;;;;;;2.70;0.90;;;;;;;16.42;43.66;99307.56;105075;1271;76767;-26
2022/05/20 05:08:03;;;;;;;3.30;1.00;;;;;;;16.53;43.07;99307.52;104935;1270;72320;-26
2022/05/20 05:10:32;;;;;;;6.60;1.30;;;;;;;16.71;43.00;99304.58;104764;1271;61822;-26
2022/05/20 05:13:02;;;;;;;3.30;1.40;;;;;;;16.93;42.08;99306.91;105076;1271;61997;-26
2022/05/20 05:15:30;;;;;;;2.70;1.00;;;;;;;17.08;41.66;99298.73;104903;1271;74488;-26
2022/05/20 05:18:16;;;;;;;2.70;1.10;;;;;;;17.13;40.77;99292.92;105084;1271;76033;-26
2022/05/20 05:20:50;;;;;;;2.00;1.30;;;;;;;17.18;41.06;99292.02;105029;1271;73778;-26
2022/05/20 05:23:19;;;;;;;7.10;1.50;;;;;;;17.36;41.05;99291.56;104911;1271;61263;-27
2022/05/20 05:25:49;;;;;;;1.30;1.10;;;;;;;17.59;39.30;99287.16;104672;1272;61054;-26
2022/05/20 05:28:20;;;;;;;2.40;1.00;;;;;;;17.84;38.35;99288.56;104823;1272;75563;-26
2022/05/20 05:30:51;;;;;;;1.70;1.20;;;;;;;18.04;38.54;99290.80;105084;1272;76272;-26
2022/05/20 05:33:21;;;;;;;3.10;1.30;;;;;;;18.10;38.25;99289.11;104926;1274;74119;-26
2022/05/20 05:35:49;;;;;;;3.50;1.00;;;;;;;18.23;38.83;99282.26;105122;1272;62137;-26
2022/05/20 05:38:24;;;;;;;2.50;1.20;;;;;;;18.29;39.05;99278.66;105387;1272;61022;-26
2022/05/20 05:40:54;;;;;;;4.30;1.60;;;;;;;18.36;38.74;99276.09;105105;1269;75493;-25
2022/05/20 05:43:23;;;;;;;4.60;1.40;;;;;;;18.41;38.07;99273.98;104836;1274;76008;-25
2022/05/20 05:45:52;;;;;;;4.10;1.00;;;;;;;18.51;38.48;99272.70;105167;1271;73465;-26
2022/05/20 05:48:21;;;;;;;4.20;1.30;;;;;;;18.74;37.88;99272.11;105160;1271;62401;-26
2022/05/20 05:50:50;;;;;;;3.00;1.50;;;;;;;18.99;38.40;99270.74;104955;1271;61007;-26
2022/05/20 05:53:20;;;;;;;2.20;1.20;;;;;;;19.30;36.54;99272.72;105041;1271;75560;-26
2022/05/20 05:55:53;;;;;;;1.80;1.30;;;;;;;19.51;34.68;99267.77;104974;1270;75137;-26
2022/05/20 05:58:22;;;;;;;3.20;1.20;;;;;;;19.65;34.02;99269.39;104777;1272;73581;-25
2022/05/20 06:00:51;;;;;;;8.10;2.00;;;;;;;19.77;34.29;99266.74;104978;1271;61127;-26
2022/05/20 06:03:20;;;;;;;4.50;1.40;;;;;;;19.92;33.55;99267.02;105166;1271;61997;-26
2022/05/20 06:05:50;;;;;;;2.00;1.10;;;;;;;19.98;34.37;99261.34;104934;1271;75353;-26
2022/05/20 06:08:19;;;;;;;2.40;1.60;;;;;;;20.14;33.84;99259.25;105086;1271;75779;-26
2022/05/20 06:10:48;;;;;;;1.50;1.20;;;;;;;20.31;33.19;99262.39;104964;1271;73648;-26
2022/05/20 06:13:24;;;;;;;4.20;1.40;;;;;;;20.36;32.83;99269.54;105278;1269;62354;-27
2022/05/20 06:15:57;;;;;;;5.70;1.20;;;;;;;20.40;33.05;99275.68;105040;1271;61952;-26
2022/05/20 06:18:25;;;;;;;2.80;1.30;;;;;;;20.43;33.62;99273.29;104979;1271;75668;-26
2022/05/20 06:20:56;;;;;;;2.60;1.00;;;;;;;20.52;33.73;99272.86;104923;1271;75966;-26
2022/05/20 06:23:25;;;;;;;1.90;1.10;;;;;;;20.60;32.45;99275.00;104877;1271;74048;-26
2022/05/20 06:25:54;;;;;;;1.90;1.20;;;;;;;20.70;32.48;99279.23;105128;1269;62046;-26
2022/05/20 06:28:44;;;;;;;3.90;1.30;;;;;;;20.82;32.95;99279.34;104934;1271;62038;-25
2022/05/20 06:31:13;;;;;;;4.70;1.50;;;;;;;20.81;32.09;99272.70;104841;1272;75364;-24
2022/05/20 06:33:42;;;;;;;2.90;1.40;;;;;;;20.74;31.63;99276.56;105217;1270;76103;-24
2022/05/20 06:42:07;;;;;;;2.90;1.40;;;;;;;20.69;31.22;99269.77;104537;1277;62187;-24
2022/05/20 06:44:37;;;;;;;2.10;1.20;;;;;;;20.91;31.47;99264.27;104687;1277;75548;-24
2022/05/20 06:47:06;;;;;;;4.60;1.00;;;;;;;21.22;30.64;99257.00;104992;1271;74979;-24
2022/05/20 06:49:35;;;;;;;4.50;1.40;;;;;;;21.29;31.49;99258.80;104945;1271;73341;-24
2022/05/20 06:52:06;;;;;;;2.20;1.30;;;;;;;21.41;30.43;99258.64;104858;1271;61423;-24
2022/05/20 06:54:56;;;;;;;2.30;1.30;;;;;;;21.42;30.17;99257.23;105048;1271;61856;-25
2022/05/20 06:57:25;;;;;;;5.30;1.40;;;;;;;21.52;30.40;99261.74;105030;1272;74547;-25
2022/05/20 06:59:55;;;;;;;3.70;1.40;;;;;;;21.45;30.56;99261.56;105004;1271;75864;-25
2022/05/20 07:02:24;;;;;;;3.50;1.50;;;;;;;21.73;30.33;99255.52;105334;1271;74470;-24
2022/05/20 07:04:58;;;;;;;4.00;1.30;;;;;;;21.73;30.33;99253.77;105115;1271;61318;-24
2022/05/20 07:07:27;;;;;;;7.90;1.40;;;;;;;21.62;30.39;99253.27;105166;1271;61035;-25
2022/05/20 07:10:02;;;;;;;4.60;1.30;;;;;;;21.73;30.21;99252.63;104945;1271;74716;-24
2022/05/20 07:12:33;;;;;;;2.10;1.10;;;;;;;21.72;29.54;99253.96;104744;1272;75173;-25
2022/05/20 07:15:04;;;;;;;5.00;1.50;;;;;;;21.91;30.20;99252.70;104987;1271;74474;-24
2022/05/20 07:17:36;;;;;;;4.30;1.60;;;;;;;21.85;29.73;99249.17;105142;1271;62305;-24
2022/05/20 07:20:06;;;;;;;1.40;1.10;;;;;;;22.05;29.79;99246.85;105299;1271;61102;-24
2022/05/20 07:22:35;;;;;;;2.50;1.30;;;;;;;22.06;29.03;99243.05;105120;1271;74415;-24
2022/05/20 07:25:04;;;;;;;2.80;1.30;;;;;;;22.40;29.12;99245.71;104972;1271;75968;-24
2022/05/20 07:27:48;;;;;;;4.50;1.40;;;;;;;22.55;29.06;99243.77;104337;1275;74619;-24
2022/05/20 07:30:17;;;;;;;7.40;1.50;;;;;;;22.61;29.89;99240.18;104775;1274;62420;-24
2022/05/20 07:32:46;;;;;;;3.10;1.40;;;;;;;22.69;28.86;99231.34;104709;1274;61900;-25
2022/05/20 07:35:16;;;;;;;2.20;1.30;;;;;;;22.56;28.68;99232.69;104649;1274;75699;-24
2022/05/20 07:37:45;;;;;;;8.40;2.10;;;;;;;22.56;28.91;99233.05;104746;1274;75952;-25
2022/05/20 07:40:14;;;;;;;3.20;1.50;;;;;;;22.66;29.05;99231.33;104644;1274;74455;-25
2022/05/20 07:42:43;;;;;;;3.20;1.20;;;;;;;22.80;28.21;99232.39;104651;1273;62085;-24
2022/05/20 07:45:13;;;;;;;5.90;1.30;;;;;;;23.03;28.88;99228.23;104698;1274;62078;-25
2022/05/20 07:47:42;;;;;;;2.80;1.10;;;;;;;23.41;28.13;99222.42;104643;1275;75611;-25
2022/05/20 07:50:12;;;;;;;7.80;1.50;;;;;;;23.77;28.12;99210.91;104620;1274;75975;-25
2022/05/20 07:55:34;;;;;;;4.00;1.40;;;;;;;23.70;28.34;99203.14;104647;1274;61052;-26
2022/05/20 07:58:04;;;;;;;4.00;1.30;;;;;;;23.85;28.32;99197.83;104620;1274;61979;-25
2022/05/20 08:00:34;;;;;;;3.10;1.20;;;;;;;24.00;27.71;99196.25;104845;1274;74702;-25
2022/05/20 08:03:02;;;;;;;3.90;1.30;;;;;;;24.07;27.64;99191.52;105028;1270;76208;-25
2022/05/20 08:05:33;;;;;;;4.00;1.30;;;;;;;24.29;26.50;99192.46;105315;1271;74456;-25
2022/05/20 08:08:04;;;;;;;6.60;1.50;;;;;;;24.39;26.73;99181.20;105115;1271;61996;-26
2022/05/20 08:10:34;;;;;;;3.20;1.30;;;;;;;24.59;26.16;99177.26;104845;1271;61162;-26
2022/05/20 08:13:03;;;;;;;3.10;1.10;;;;;;;24.75;26.42;99172.91;104767;1272;73573;-26
2022/05/20 08:15:34;;;;;;;6.60;1.30;;;;;;;24.69;26.21;99173.14;105101;1271;75928;-26
2022/05/20 08:18:03;;;;;;;2.00;1.20;;;;;;;24.84;26.70;99170.07;105357;1271;73501;-25
2022/05/20 08:20:32;;;;;;;3.90;1.30;;;;;;;24.94;24.85;99161.23;104943;1271;62087;-26
2022/05/20 08:23:02;;;;;;;6.10;1.40;;;;;;;24.83;24.19;99158.52;104957;1271;61469;-26
2022/05/20 08:25:31;;;;;;;1.90;1.20;;;;;;;24.76;25.17;99156.19;104979;1271;75258;-26
2022/05/20 08:28:00;;;;;;;2.40;1.00;;;;;;;24.98;24.06;99157.23;104956;1271;75894;-26
2022/05/20 08:30:29;;;;;;;5.50;1.20;;;;;;;25.15;24.95;99144.21;104972;1271;73374;-25
2022/05/20 08:32:58;;;;;;;2.70;1.10;;;;;;;25.31;23.96;99143.10;104961;1271;61178;-26
2022/05/20 08:35:27;;;;;;;2.70;1.30;;;;;;;25.30;24.72;99139.45;104835;1271;61354;-26
2022/05/20 08:37:57;;;;;;;4.90;1.10;;;;;;;25.33;23.65;99135.23;105040;1271;75692;-25
2022/05/20 08:40:34;;;;;;;4.70;1.50;;;;;;;25.49;23.22;99135.77;105270;1271;75844;-26
2022/05/20 08:43:03;;;;;;;13.90;1.90;;;;;;;25.41;22.69;99129.95;104927;1271;73433;-26
2022/05/20 08:45:33;;;;;;;7.50;1.60;;;;;;;25.36;22.80;99123.11;104785;1271;62123;-26
2022/05/20 08:48:04;;;;;;;2.90;1.20;;;;;;;25.27;23.19;99120.91;104792;1271;291440;-26
2022/05/20 08:50:53;;;;;;;3.20;1.20;;;;;;;25.06;23.68;99125.40;105169;1272;75488;-26
2022/05/20 08:53:31;;;;;;;3.90;1.40;;;;;;;25.28;23.74;99119.88;105041;1271;76159;-25
2022/05/20 08:56:05;;;;;;;3.50;1.30;;;;;;;25.32;23.51;99116.27;104755;1274;74424;-26
2022/05/20 08:58:37;;;;;;;1.90;1.30;;;;;;;25.70;22.66;99112.16;104936;1271;61143;-26
2022/05/20 09:01:08;;;;;;;2.60;1.40;;;;;;;25.72;23.00;99106.89;104747;1274;62065;-26
2022/05/20 09:03:37;;;;;;;3.40;1.30;;;;;;;25.56;21.94;99105.23;105038;1271;75314;-26
2022/05/20 09:06:10;;;;;;;3.20;1.60;;;;;;;25.62;23.19;99102.94;104867;1271;74954;-26
2022/05/20 09:08:39;;;;;;;2.60;1.40;;;;;;;25.76;22.82;99099.05;104817;1274;74543;-26
2022/05/20 09:11:13;;;;;;;1.70;1.30;;;;;;;25.74;22.82;99094.96;104986;1271;61147;-26
2022/05/20 09:16:36;;;;;;;3.60;1.40;;;;;;;25.14;22.50;99097.52;104801;1271;75548;-26
2022/05/20 09:19:15;;;;;;;3.10;1.50;;;;;;;25.12;23.35;99087.82;104822;1271;76464;-26
2022/05/20 09:22:01;;;;;;;5.90;1.50;;;;;;;25.30;24.00;99085.20;104918;1271;73334;-26
2022/05/20 09:24:36;;;;;;;4.10;1.30;;;;;;;25.50;23.77;99079.30;104936;1271;61892;-26
2022/05/20 09:27:10;;;;;;;2.60;1.20;;;;;;;25.80;22.69;99078.32;104812;1274;61121;-26
2022/05/20 09:29:45;;;;;;;3.50;1.30;;;;;;;25.95;23.03;99079.00;104798;1272;75273;-26
2022/05/20 09:32:21;;;;;;;3.80;1.20;;;;;;;26.30;21.65;99070.65;104782;1271;75101;-26
2022/05/20 09:35:19;;;;;;;3.00;1.00;;;;;;;26.33;21.83;99072.38;104675;1271;74412;-26
2022/05/20 09:37:49;;;;;;;6.50;1.60;;;;;;;26.36;22.21;99063.75;104964;1271;61242;-26
2022/05/20 09:40:19;;;;;;;5.40;1.20;;;;;;;26.21;22.63;99059.55;104829;1271;62201;-26
2022/05/20 09:43:27;;;;;;;2.70;1.20;;;;;;;26.49;21.33;99064.16;104934;1270;75311;-25
2022/05/20 09:45:57;;;;;;;3.60;1.50;;;;;;;26.81;21.07;99057.63;104874;1271;75823;-26
2022/05/20 09:48:36;;;;;;;2.70;1.40;;;;;;;27.11;20.24;99053.21;104891;1271;73453;-26
2022/05/20 09:51:12;;;;;;;3.70;1.40;;;;;;;27.31;21.50;99048.83;104836;1272;62051;-26
2022/05/20 09:53:44;;;;;;;2.70;1.40;;;;;;;27.41;22.21;99048.52;104897;1272;61133;-26
2022/05/20 09:56:23;;;;;;;6.50;1.40;;;;;;;27.41;21.85;99041.77;105173;1271;74483;-26
2022/05/20 09:59:27;;;;;;;6.20;1.20;;;;;;;26.93;22.33;99034.34;104951;1273;75777;-26
2022/05/20 10:02:03;;;;;;;3.10;1.40;;;;;;;26.39;23.09;99031.75;105275;1270;74144;-26
2022/05/20 10:04:51;;;;;;;2.10;1.30;;;;;;;26.66;20.69;99036.27;105103;1271;61122;-26
2022/05/20 10:07:30;;;;;;;1.50;1.10;;;;;;;27.14;21.76;99030.67;105297;1271;61952;-26
2022/05/20 10:10:08;;;;;;;2.30;1.00;;;;;;;27.37;20.76;99033.14;105008;1271;75605;-26
2022/05/20 10:12:38;;;;;;;4.60;1.40;;;;;;;26.94;21.14;99031.14;104763;1272;74794;-26
2022/05/20 10:15:24;;;;;;;5.00;1.10;;;;;;;26.21;23.03;99028.52;101872;1309;599970;-25
2022/05/20 10:17:59;;;;;;;4.60;2.00;;;;;;;26.43;22.61;99026.13;104197;1287;62092;-25
2022/05/20 10:20:35;;;;;;;5.10;1.40;;;;;;;26.62;22.98;99028.60;103956;1284;61773;-24
2022/05/20 10:23:07;;;;;;;2.90;1.30;;;;;;;26.88;23.02;99023.82;103951;1285;74174;-24
2022/05/20 10:25:38;;;;;;;5.20;1.50;;;;;;;26.91;23.29;99020.25;104448;1284;75908;-24
2022/05/20 10:32:34;;;;;;;5.40;1.50;;;;;;;27.10;22.91;99017.39;103599;1287;443225;-25
2022/05/20 10:34:33;;;;;;;5.90;1.30;;;;;;;27.60;22.66;99002.11;104480;1281;61038;-24
2022/05/20 10:37:17;;;;;;;6.00;1.50;;;;;;;27.80;23.29;99001.84;104329;1281;73460;-24
2022/05/20 10:40:23;;;;;;;4.80;1.20;;;;;;;27.68;21.51;98991.89;104732;1277;75094;-26
2022/05/20 10:43:06;;;;;;;3.40;1.30;;;;;;;27.58;21.38;98980.63;104739;1277;75054;-25
2022/05/20 10:49:13;;;;;;;3.70;1.50;;;;;;;27.18;21.54;98975.77;104726;1277;61044;-26
2022/05/20 10:51:49;;;;;;;4.70;1.10;;;;;;;27.29;21.32;98978.78;104688;1276;74716;-26
2022/05/20 10:54:44;;;;;;;4.50;1.20;;;;;;;27.61;21.08;98974.01;104640;1277;76002;-26
2022/05/20 10:57:31;;;;;;;6.60;1.30;;;;;;;27.97;20.89;98967.20;104718;1277;73378;-25
2022/05/20 11:00:00;;;;;;;3.80;1.30;;;;;;;27.56;20.72;98959.46;104698;1277;62089;-26
2022/05/20 11:02:51;;;;;;;5.50;1.50;;;;;;;26.99;22.33;98961.52;104762;1277;63842;-25
2022/05/20 11:05:40;;;;;;;5.40;1.40;;;;;;;26.43;22.20;98960.08;104668;1277;74582;-25
2022/05/20 11:08:30;;;;;;;2.40;1.10;;;;;;;26.18;23.42;98954.33;104764;1277;75903;-26
2022/05/20 11:11:13;;;;;;;5.00;1.20;;;;;;;26.53;22.01;98943.72;104821;1277;73356;-27
2022/05/20 11:14:14;;;;;;;3.60;1.20;;;;;;;26.77;21.19;98945.05;104757;1277;61666;-27
2022/05/20 11:16:54;;;;;;;4.60;1.20;;;;;;;26.93;21.27;98945.30;104681;1278;62039;-25
2022/05/20 11:19:34;;;;;;;4.50;1.00;;;;;;;26.91;21.30;98941.25;104650;1277;73857;-27
2022/05/20 11:22:22;;;;;;;3.90;1.20;;;;;;;26.68;21.88;98932.98;104699;1277;76165;-27
2022/05/20 11:25:01;;;;;;;4.90;1.10;;;;;;;26.61;21.17;98929.73;104876;1277;74495;-26
2022/05/20 11:27:55;;;;;;;3.00;1.10;;;;;;;26.71;20.82;98926.86;104738;1276;61936;-25
2022/05/20 11:30:50;;;;;;;1.70;1.30;;;;;;;26.88;21.31;98911.06;104742;1277;61915;-26
2022/05/20 11:33:44;;;;;;;10.80;1.80;;;;;;;26.54;21.47;98914.52;104871;1274;75062;-25
2022/05/20 11:36:37;;;;;;;2.80;1.20;;;;;;;26.48;22.31;98912.74;104765;1275;77322;-26
2022/05/20 11:39:06;;;;;;;9.20;1.90;;;;;;;26.64;22.38;98911.90;104771;1276;74373;-25
2022/05/20 11:41:51;;;;;;;2.90;1.00;;;;;;;26.99;21.59;98913.58;104778;1274;61793;-26
2022/05/20 11:44:22;;;;;;;4.60;1.10;;;;;;;27.41;22.25;98909.66;104719;1274;61201;-27
2022/05/20 11:47:04;;;;;;;4.70;1.20;;;;;;;27.47;23.57;98901.22;104801;1274;73519;-27
2022/05/20 11:49:57;;;;;;;4.30;1.10;;;;;;;27.37;22.82;98896.29;104738;1274;76151;-26
2022/05/20 11:52:47;;;;;;;4.60;1.00;;;;;;;27.28;20.96;98895.99;104805;1274;74374;-27
2022/05/20 11:55:29;;;;;;;2.70;1.00;;;;;;;27.31;22.84;98898.47;104700;1274;61881;-26
2022/05/20 11:58:04;;;;;;;7.90;1.40;;;;;;;27.26;23.08;98893.77;104742;1274;62053;-28
2022/05/20 12:00:39;;;;;;;3.40;1.40;;;;;;;27.45;22.20;98890.06;104750;1274;74155;-24
2022/05/20 12:03:16;;;;;;;1.60;1.10;;;;;;;27.48;22.40;98891.77;104618;1274;76084;-26
2022/05/20 12:05:47;;;;;;;4.10;1.10;;;;;;;27.45;21.89;98877.77;104732;1274;73375;-26
2022/05/20 12:08:44;;;;;;;2.00;1.10;;;;;;;27.26;22.03;98883.08;104829;1274;61588;-25
2022/05/20 12:11:32;;;;;;;2.50;1.10;;;;;;;27.19;21.66;98883.77;104757;1274;61452;-25
2022/05/20 12:14:07;;;;;;;4.70;1.50;;;;;;;26.86;22.66;98880.35;104692;1274;74779;-25
2022/05/20 12:17:05;;;;;;;3.60;1.20;;;;;;;26.60;23.19;98868.89;104764;1274;75756;-25
2022/05/20 12:26:05;;;;;;;5.80;1.40;;;;;;;26.51;22.71;98852.59;104532;1274;62276;-24
2022/05/20 12:28:36;;;;;;;2.30;1.20;;;;;;;26.56;23.87;98850.56;104728;1274;74833;-26
2022/05/20 12:31:14;;;;;;;2.20;1.30;;;;;;;26.53;23.66;98846.32;104808;1274;76522;-24
2022/05/20 12:34:03;;;;;;;4.10;1.00;;;;;;;26.81;24.37;98841.88;104728;1275;74419;-26